createdAt,value
2019-05-12T00:02:04.363Z,6.62
2019-05-12T00:04:41.908Z,4.62
2019-05-12T00:10:11.820Z,5.25
2019-05-12T00:13:49.402Z,6.35
2019-05-12T00:15:28.013Z,8.90
2019-05-12T00:18:02.221Z,7.87
2019-05-12T00:20:43.082Z,9.50
2019-05-12T00:23:41.680Z,6.45
2019-05-12T00:26:21.168Z,7.72
2019-05-12T00:31:49.016Z,8.55
2019-05-12T00:34:24.814Z,5.50
2019-05-12T00:37:08.174Z,5.05
2019-05-12T00:39:39.522Z,5.95
2019-05-12T00:42:32.926Z,4.92
2019-05-12T00:44:55.782Z,5.05
2019-05-12T00:47:33.985Z,3.67
2019-05-12T00:50:14.402Z,4.65
2019-05-12T00:52:49.276Z,3.62
2019-05-12T00:55:21.751Z,3.42
2019-05-12T00:58:01.502Z,3.52
2019-05-12T01:00:53.730Z,3.42
2019-05-12T01:03:27.919Z,4.30
2019-05-12T01:06:14.431Z,5.67
2019-05-12T01:10:29.004Z,5.47
2019-05-12T01:14:40.032Z,7.22
2019-05-12T01:17:20.059Z,5.40
2019-05-12T01:19:58.401Z,7.22
2019-05-12T01:22:30.102Z,9.60
2019-05-12T01:25:03.859Z,6.83
2019-05-12T01:28:08.054Z,11.05
2019-05-12T01:33:48.494Z,14.68
2019-05-12T01:39:27.622Z,11.18
2019-05-12T01:47:59.587Z,14.60
2019-05-12T01:53:28.708Z,20.20
2019-05-12T01:56:38.129Z,22.77
2019-05-12T01:58:51.393Z,19.00
2019-05-12T02:04:18.134Z,19.27
2019-05-12T02:12:22.122Z,16.48
2019-05-12T02:24:24.268Z,19.25
2019-05-12T02:27:32.704Z,26.27
2019-05-12T02:35:54.831Z,24.85
2019-05-12T02:39:19.319Z,29.55
2019-05-12T02:46:59.790Z,27.75
2019-05-12T02:49:38.866Z,23.47
2019-05-12T02:53:39.220Z,31.42
2019-05-12T02:56:50.910Z,17.50
2019-05-12T03:04:45.578Z,16.85
2019-05-12T03:51:15.620Z,12.73
2019-05-12T03:53:47.970Z,10.20
2019-05-12T03:56:28.677Z,12.35
2019-05-12T04:02:06.897Z,10.63
2019-05-12T04:05:05.889Z,10.23
2019-05-12T04:07:45.004Z,15.03
2019-05-12T04:13:19.770Z,15.83
2019-05-12T04:24:24.723Z,7.47
2019-05-12T04:38:55.274Z,11.65
2019-05-12T04:43:06.450Z,14.68
2019-05-12T04:47:05.456Z,16.35
2019-05-12T04:49:36.120Z,11.95
2019-05-12T04:52:11.294Z,15.93
2019-05-12T04:55:04.437Z,14.80
2019-05-12T04:57:37.821Z,14.70
2019-05-12T05:00:17.873Z,11.70
2019-05-12T05:03:19.677Z,14.35
2019-05-12T05:06:04.317Z,9.50
2019-05-12T05:08:24.277Z,12.05
2019-05-12T05:11:38.875Z,8.85
2019-05-12T05:14:04.256Z,10.43
2019-05-12T05:16:34.650Z,7.17
2019-05-12T05:28:23.631Z,12.15
2019-05-12T05:39:47.593Z,9.70
2019-05-12T05:51:23.823Z,12.43
2019-05-12T05:54:03.805Z,12.85
2019-05-12T05:56:41.801Z,9.60
2019-05-12T06:02:25.411Z,9.83
2019-05-12T06:05:05.729Z,8.58
2019-05-12T06:07:44.302Z,9.35
2019-05-12T06:10:17.271Z,8.50
2019-05-12T06:12:54.540Z,11.12
2019-05-12T06:15:29.826Z,7.42
2019-05-12T06:18:17.456Z,15.98
2019-05-12T06:20:38.145Z,9.80
2019-05-12T06:23:14.522Z,12.98
2019-05-12T06:25:55.041Z,12.65
2019-05-12T06:28:36.438Z,10.50
2019-05-12T06:31:29.857Z,9.40
2019-05-12T06:34:20.313Z,15.05
2019-05-12T06:36:38.758Z,11.57
2019-05-12T06:39:10.526Z,13.50
2019-05-12T06:41:44.776Z,14.18
2019-05-12T06:44:24.042Z,8.35
2019-05-12T06:47:03.635Z,11.00
2019-05-12T06:49:36.335Z,8.33
2019-05-12T06:52:14.146Z,10.75
2019-05-12T06:54:51.387Z,6.17
2019-05-12T06:57:22.237Z,6.58
2019-05-12T06:59:58.300Z,7.05
2019-05-12T07:02:33.520Z,6.92
2019-05-12T07:05:04.578Z,6.50
2019-05-12T07:07:42.149Z,8.85
2019-05-12T07:10:26.646Z,7.83
2019-05-12T07:12:55.963Z,9.83
2019-05-12T07:15:17.825Z,7.40
2019-05-12T07:18:04.292Z,9.88
2019-05-12T07:20:45.639Z,8.00
2019-05-12T07:23:19.718Z,10.35
2019-05-12T07:25:57.523Z,8.58
2019-05-12T07:29:30.986Z,9.83
2019-05-12T07:38:28.901Z,7.37
2019-05-12T07:40:53.644Z,9.58
2019-05-12T08:31:49.918Z,3.08
2019-05-12T08:34:34.035Z,3.02
2019-05-12T08:37:24.264Z,2.95
2019-05-12T08:40:25.285Z,2.80
2019-05-12T08:43:10.166Z,2.87
2019-05-12T08:45:44.244Z,2.92
2019-05-12T08:48:21.464Z,3.12
2019-05-12T08:57:09.001Z,2.83
2019-05-12T09:03:30.179Z,2.80
2019-05-12T09:06:04.062Z,3.85
2019-05-12T09:08:44.766Z,6.37
2019-05-12T09:20:17.844Z,3.00
2019-05-12T09:23:43.386Z,3.15
2019-05-12T09:25:49.211Z,2.30
2019-05-12T09:28:50.525Z,2.60
2019-05-12T09:31:45.454Z,2.65
2019-05-12T09:34:36.991Z,2.87
2019-05-12T09:36:59.745Z,3.00
2019-05-12T09:39:51.283Z,5.10
2019-05-12T09:42:36.557Z,5.72
2019-05-12T09:45:10.364Z,5.83
2019-05-12T09:47:45.465Z,5.97
2019-05-12T09:56:18.537Z,5.80
2019-05-12T10:05:00.683Z,6.62
2019-05-12T10:07:46.492Z,4.97
2019-05-12T10:10:44.542Z,5.17
2019-05-12T10:14:18.761Z,5.47
2019-05-12T10:16:10.082Z,5.87
2019-05-12T10:18:42.999Z,5.58
2019-05-12T10:21:15.515Z,6.12
2019-05-12T10:24:00.097Z,5.85
2019-05-12T10:26:23.885Z,5.85
2019-05-12T10:28:58.477Z,6.35
2019-05-12T10:31:35.620Z,6.10
2019-05-12T10:34:19.985Z,6.25
2019-05-12T10:36:58.722Z,5.37
2019-05-12T10:39:33.322Z,5.35
2019-05-12T10:42:04.646Z,5.65
2019-05-12T10:44:40.857Z,5.26
2019-05-12T10:47:13.537Z,5.53
2019-05-12T10:49:49.236Z,5.95
2019-05-12T10:52:24.433Z,5.55
2019-05-12T10:55:04.324Z,6.05
2019-05-12T10:57:40.739Z,8.35
2019-05-12T11:00:19.578Z,5.42
2019-05-12T11:02:48.320Z,5.60
2019-05-12T11:05:25.461Z,5.75
2019-05-12T11:07:53.985Z,5.97
2019-05-12T11:10:25.268Z,5.45
2019-05-12T11:12:59.226Z,5.53
2019-05-12T11:15:30.207Z,5.42
2019-05-12T11:18:26.004Z,6.03
2019-05-12T11:20:45.140Z,5.55
2019-05-12T11:23:19.599Z,5.15
2019-05-12T11:25:53.444Z,5.67
2019-05-12T11:28:25.080Z,6.72
2019-05-12T11:30:58.197Z,7.00
2019-05-12T11:33:28.150Z,5.25
2019-05-12T11:38:35.300Z,4.95
2019-05-12T11:41:04.239Z,6.33
2019-05-12T11:43:41.451Z,6.60
2019-05-12T11:46:12.593Z,5.25
2019-05-12T11:48:50.296Z,5.10
2019-05-12T11:51:28.903Z,4.65
2019-05-12T11:54:03.404Z,5.25
2019-05-12T11:56:40.204Z,4.72
2019-05-12T11:59:07.355Z,5.45
2019-05-12T12:01:49.784Z,4.87
2019-05-12T12:04:23.571Z,4.40
2019-05-12T12:07:09.685Z,4.78
2019-05-12T12:09:44.084Z,5.17
2019-05-12T12:12:14.170Z,5.62
2019-05-12T12:14:46.180Z,4.50
2019-05-12T12:17:30.814Z,5.75
2019-05-12T12:19:56.775Z,6.62
2019-05-12T12:22:33.889Z,8.83
2019-05-12T12:25:10.906Z,5.67
2019-05-12T12:27:39.550Z,5.72
2019-05-12T12:32:50.205Z,5.67
2019-05-12T12:35:16.533Z,4.78
2019-05-12T12:37:59.353Z,4.62
2019-05-12T12:43:34.457Z,4.60
2019-05-12T12:46:10.586Z,4.28
2019-05-12T12:48:45.170Z,3.72
2019-05-12T12:51:17.704Z,4.90
2019-05-12T12:53:50.268Z,3.65
2019-05-12T12:56:30.018Z,3.30
2019-05-12T12:59:11.909Z,4.03
2019-05-12T13:04:39.493Z,3.20
2019-05-12T13:10:09.530Z,3.33
2019-05-12T13:12:36.335Z,4.25
2019-05-12T13:15:06.883Z,3.85
2019-05-12T13:17:41.827Z,3.35
2019-05-12T13:20:08.983Z,3.20
2019-05-12T13:22:38.726Z,3.77
2019-05-12T13:30:18.620Z,3.30
2019-05-12T13:32:44.202Z,3.12
2019-05-12T13:35:17.468Z,2.85
2019-05-12T13:37:45.237Z,2.77
2019-05-12T13:42:55.154Z,2.80
2019-05-12T13:45:37.885Z,2.60
2019-05-12T13:48:19.825Z,3.25
2019-05-12T13:50:50.843Z,3.00
2019-05-12T13:53:25.810Z,3.20
2019-05-12T13:56:29.866Z,3.02
2019-05-12T13:58:42.273Z,3.35
2019-05-12T14:01:19.952Z,3.42
2019-05-12T14:03:50.650Z,2.95
2019-05-12T14:06:32.125Z,3.92
2019-05-12T14:09:04.354Z,4.20
2019-05-12T14:11:43.487Z,2.87
2019-05-12T14:24:55.081Z,3.37
2019-05-12T14:32:02.452Z,2.98
2019-05-12T14:48:27.815Z,2.90
2019-05-12T14:49:05.525Z,3.20
2019-05-12T14:51:40.108Z,3.10
2019-05-12T14:54:44.264Z,2.80
2019-05-12T14:56:57.814Z,2.83
2019-05-12T15:00:11.401Z,3.25
2019-05-12T15:02:14.425Z,2.98
2019-05-12T15:05:41.173Z,2.80
2019-05-12T15:07:24.139Z,2.70
2019-05-12T15:10:07.035Z,2.83
2019-05-12T15:20:00.138Z,5.00
2019-05-12T15:25:10.423Z,3.45
2019-05-12T15:27:44.097Z,3.12
2019-05-12T15:30:24.428Z,3.10
2019-05-12T15:32:57.077Z,2.75
2019-05-12T15:35:34.386Z,2.83
2019-05-12T15:38:15.297Z,3.10
2019-05-12T15:40:54.655Z,3.00
2019-05-12T15:43:27.582Z,2.70
2019-05-12T15:46:16.440Z,5.95
2019-05-12T15:48:55.417Z,2.83
2019-05-12T15:51:36.184Z,2.60
2019-05-12T15:54:15.637Z,2.83
2019-05-12T15:56:55.933Z,2.50
2019-05-12T15:59:40.132Z,2.40
2019-05-12T16:05:30.798Z,2.90
2019-05-12T16:07:57.248Z,2.70
2019-05-12T16:13:53.661Z,2.50
2019-05-12T16:15:57.665Z,2.52
2019-05-12T16:18:34.452Z,2.35
2019-05-12T16:21:14.467Z,2.60
2019-05-12T16:23:56.440Z,2.70
2019-05-12T16:26:42.307Z,2.70
2019-05-12T16:32:26.384Z,2.60
2019-05-12T16:38:05.915Z,3.37
2019-05-12T16:46:50.312Z,3.17
2019-05-12T16:52:34.653Z,3.37
2019-05-12T16:55:08.845Z,3.02
2019-05-12T16:57:51.645Z,3.22
2019-05-12T17:00:24.387Z,2.75
2019-05-12T17:03:00.396Z,2.92
2019-05-12T17:05:34.988Z,2.98
2019-05-12T17:11:23.000Z,2.85
2019-05-12T17:13:39.290Z,2.90
2019-05-12T17:16:10.692Z,2.77
2019-05-12T17:18:44.278Z,2.70
2019-05-12T17:21:18.718Z,2.70
2019-05-12T17:23:47.337Z,2.75
2019-05-12T17:26:24.831Z,2.70
2019-05-12T17:28:48.575Z,3.50
2019-05-12T17:31:21.482Z,3.10
2019-05-12T17:34:00.078Z,2.90
2019-05-12T17:36:26.794Z,3.45
2019-05-12T17:38:59.536Z,2.98
2019-05-12T17:41:31.513Z,3.22
2019-05-12T17:44:05.303Z,3.00
2019-05-12T17:46:37.903Z,3.17
2019-05-12T17:49:17.695Z,3.00
2019-05-12T17:51:43.402Z,3.17
2019-05-12T17:54:21.335Z,3.12
2019-05-12T17:56:45.881Z,3.02
2019-05-12T17:59:27.595Z,3.00
2019-05-12T18:01:48.615Z,3.12
2019-05-12T18:04:36.806Z,3.20
2019-05-12T18:07:18.909Z,3.20
2019-05-12T18:09:38.638Z,3.17
2019-05-12T18:14:54.052Z,3.60
2019-05-12T18:17:25.527Z,3.20
2019-05-12T18:22:33.865Z,5.20
2019-05-12T18:25:08.887Z,3.05
2019-05-12T18:27:48.882Z,3.00
2019-05-12T18:30:19.131Z,3.35
2019-05-12T18:33:04.583Z,2.62
2019-05-12T18:38:31.977Z,3.75
2019-05-12T18:41:03.546Z,5.37
2019-05-12T18:43:34.719Z,2.95
2019-05-12T18:46:13.792Z,3.00
2019-05-12T18:48:43.941Z,3.27
2019-05-12T18:51:17.199Z,4.47
2019-05-12T18:54:34.422Z,4.42
2019-05-12T18:57:08.812Z,5.35
2019-05-12T18:59:54.447Z,4.08
2019-05-12T19:02:23.305Z,4.05
2019-05-12T19:04:58.919Z,4.17
2019-05-12T19:07:39.598Z,3.35
2019-05-12T19:10:09.593Z,3.35
2019-05-12T19:12:40.645Z,4.35
2019-05-12T19:15:17.153Z,3.87
2019-05-12T19:17:43.559Z,3.45
2019-05-12T19:20:14.083Z,4.25
2019-05-12T19:22:56.125Z,5.20
2019-05-12T19:25:19.373Z,5.08
2019-05-12T19:27:55.191Z,3.55
2019-05-12T19:30:25.450Z,4.35
2019-05-12T19:32:52.483Z,4.12
2019-05-12T19:35:23.511Z,4.53
2019-05-12T19:37:54.015Z,3.80
2019-05-12T19:40:24.750Z,4.30
2019-05-12T19:43:01.968Z,7.22
2019-05-12T19:45:26.570Z,11.73
2019-05-12T19:47:56.493Z,5.17
2019-05-12T19:50:26.099Z,6.90
2019-05-12T19:53:04.151Z,6.12
2019-05-12T19:55:38.252Z,7.62
2019-05-12T19:58:11.379Z,4.45
2019-05-12T20:00:46.061Z,4.37
2019-05-12T20:03:16.529Z,4.65
2019-05-12T20:05:50.736Z,4.58
2019-05-12T20:08:20.405Z,5.65
2019-05-12T20:10:50.329Z,6.97
2019-05-12T20:13:19.914Z,3.75
2019-05-12T20:15:49.805Z,4.47
2019-05-12T20:18:19.622Z,3.85
2019-05-12T20:20:49.332Z,3.92
2019-05-12T20:23:19.933Z,6.12
2019-05-12T20:25:49.667Z,5.45
2019-05-12T20:28:19.408Z,3.60
2019-05-12T20:30:54.360Z,5.67
2019-05-12T20:33:23.984Z,4.22
2019-05-12T20:35:51.969Z,3.87
2019-05-12T20:38:25.550Z,4.65
2019-05-12T20:40:56.808Z,4.35
2019-05-12T20:43:44.257Z,4.37
2019-05-12T20:49:30.014Z,4.28
2019-05-12T20:54:30.095Z,3.40
2019-05-12T20:57:08.316Z,3.85
2019-05-12T20:59:44.642Z,3.90
2019-05-12T21:05:58.228Z,4.75
2019-05-12T21:08:23.599Z,6.10
2019-05-12T21:10:54.129Z,4.80
2019-05-12T21:13:27.355Z,6.75
2019-05-12T21:15:55.453Z,4.97
2019-05-12T21:18:25.285Z,6.28
2019-05-12T21:20:55.253Z,5.05
2019-05-12T21:25:58.123Z,7.97
2019-05-12T21:28:25.391Z,4.70
2019-05-12T21:30:55.896Z,4.33
2019-05-12T21:33:31.440Z,4.12
2019-05-12T21:35:58.058Z,4.25
2019-05-12T21:38:29.670Z,3.72
2019-05-12T21:41:02.054Z,5.42
2019-05-12T21:43:30.489Z,4.08
2019-05-12T21:46:01.043Z,10.58
2019-05-12T21:48:33.891Z,10.25
2019-05-12T21:51:04.164Z,22.22
2019-05-12T21:53:34.464Z,16.82
2019-05-12T21:56:05.672Z,14.73
2019-05-12T21:58:35.506Z,12.55
2019-05-12T22:01:07.635Z,10.72
2019-05-12T22:03:37.882Z,7.03
2019-05-12T22:08:38.021Z,4.53
2019-05-12T22:11:11.516Z,4.30
2019-05-12T22:13:39.256Z,4.62
2019-05-12T22:16:10.536Z,5.75
2019-05-12T22:18:40.232Z,6.00
2019-05-12T22:21:09.861Z,4.70
2019-05-12T22:23:44.569Z,5.62
2019-05-12T22:26:10.906Z,6.03
2019-05-12T22:28:45.935Z,5.25
2019-05-12T22:31:13.749Z,5.17
2019-05-12T22:33:51.518Z,5.40
2019-05-12T22:36:25.868Z,4.62
2019-05-12T22:38:45.900Z,4.97
2019-05-12T22:41:15.442Z,5.53
2019-05-12T22:43:45.900Z,7.60
2019-05-12T22:46:16.571Z,5.00
2019-05-12T22:48:46.989Z,7.67
2019-05-12T22:51:23.500Z,4.72
2019-05-12T22:53:48.037Z,5.03
2019-05-12T22:56:18.256Z,9.03
2019-05-12T22:58:51.999Z,4.80
2019-05-12T23:01:19.472Z,6.50
2019-05-12T23:03:51.431Z,4.67
2019-05-12T23:06:24.876Z,4.83
2019-05-12T23:08:54.097Z,5.42
2019-05-12T23:11:31.788Z,5.20
2019-05-12T23:13:54.607Z,5.22
2019-05-12T23:16:27.671Z,4.87
2019-05-12T23:18:55.651Z,4.65
2019-05-12T23:21:25.404Z,4.67
2019-05-12T23:23:57.198Z,5.00
2019-05-12T23:26:26.394Z,5.05
2019-05-12T23:31:29.851Z,6.92
2019-05-12T23:33:56.183Z,5.10
2019-05-12T23:36:35.580Z,4.30
2019-05-12T23:39:00.331Z,5.45
2019-05-12T23:41:28.275Z,5.17
2019-05-12T23:43:57.895Z,4.00
2019-05-12T23:46:27.495Z,4.87
2019-05-12T23:48:57.084Z,4.10
2019-05-12T23:51:26.775Z,4.30
2019-05-12T23:53:56.396Z,4.70
2019-05-12T23:56:26.177Z,4.15
2019-05-12T23:58:55.910Z,5.30
